createdAt,value
2023-05-02T15:14:30.275Z,36.62
2023-05-02T15:16:58.437Z,35.12
2023-05-02T15:19:26.117Z,36.80
2023-05-02T15:21:54.682Z,36.58
2023-05-02T15:24:22.290Z,36.25
2023-05-02T15:26:50.339Z,36.32
2023-05-02T15:29:17.884Z,36.53
2023-05-02T15:31:45.766Z,36.78
2023-05-02T15:34:13.830Z,36.64
2023-05-02T15:36:41.420Z,37.35
2023-05-02T15:39:09.063Z,36.77
2023-05-02T15:41:36.665Z,36.34
2023-05-02T15:44:04.490Z,34.72
2023-05-02T15:46:32.053Z,36.44
2023-05-02T15:48:59.920Z,36.64
2023-05-02T15:51:27.726Z,37.80
2023-05-02T15:53:55.775Z,37.07
2023-05-02T15:56:23.349Z,35.32
2023-05-02T15:58:51.057Z,38.16
2023-05-02T16:01:21.078Z,36.38
2023-05-02T16:03:49.217Z,37.46
2023-05-02T16:06:17.964Z,36.65
2023-05-02T16:08:45.658Z,36.36
2023-05-02T16:11:13.298Z,37.28
2023-05-02T16:13:40.931Z,37.80
2023-05-02T16:16:08.636Z,37.74
2023-05-02T16:18:36.445Z,38.19
2023-05-02T16:21:05.461Z,38.74
2023-05-02T16:23:34.226Z,37.58
2023-05-02T16:26:04.276Z,36.75
2023-05-02T16:28:32.151Z,38.11
2023-05-02T16:31:06.635Z,38.14
2023-05-02T16:33:34.198Z,38.41
2023-05-02T16:36:03.836Z,39.04
2023-05-02T16:38:32.632Z,37.09
2023-05-02T16:41:03.510Z,38.51
2023-05-02T16:43:31.190Z,38.24
2023-05-02T16:46:03.382Z,38.37
2023-05-02T16:48:32.046Z,36.60
2023-05-02T16:51:04.414Z,38.27
2023-05-02T16:53:33.338Z,37.71
2023-05-02T16:56:01.039Z,37.66
2023-05-02T16:58:29.160Z,36.87
2023-05-02T17:00:58.689Z,37.33
2023-05-02T17:03:26.914Z,37.96
2023-05-02T17:05:57.814Z,37.87
2023-05-02T17:08:25.379Z,36.83
2023-05-02T17:10:53.360Z,36.58
2023-05-02T17:13:20.980Z,35.99
2023-05-02T17:15:48.591Z,35.42
2023-05-02T17:18:16.479Z,36.86
2023-05-02T17:20:45.998Z,37.03
2023-05-02T17:23:14.617Z,35.56
2023-05-02T17:25:42.499Z,37.08
2023-05-02T17:28:10.356Z,36.78
2023-05-02T17:30:38.537Z,36.20
2023-05-02T17:33:06.395Z,35.70
2023-05-02T17:35:34.200Z,35.42
2023-05-02T17:38:01.974Z,35.14
2023-05-02T17:40:30.077Z,34.93
2023-05-02T17:42:59.279Z,36.45
2023-05-02T17:45:28.975Z,36.33
2023-05-02T17:47:57.225Z,36.82
2023-05-02T17:50:24.960Z,35.83
2023-05-02T17:52:53.192Z,35.56
2023-05-02T17:55:21.177Z,33.87
2023-05-02T17:57:49.593Z,34.06
2023-05-02T18:00:18.828Z,34.33
2023-05-02T18:02:46.546Z,33.40
2023-05-02T18:05:14.672Z,32.72
2023-05-02T18:07:42.573Z,33.36
2023-05-02T18:10:10.420Z,33.32
2023-05-02T18:12:38.339Z,32.52
2023-05-02T18:15:09.228Z,32.67
2023-05-02T18:17:37.569Z,33.20
2023-05-02T18:20:07.180Z,31.28
2023-05-02T18:22:35.666Z,33.91
2023-05-02T18:25:03.981Z,32.99
2023-05-02T18:27:32.321Z,33.82
2023-05-02T18:30:03.673Z,33.60
2023-05-02T18:32:36.056Z,32.29
2023-05-02T18:35:04.452Z,32.22
2023-05-02T18:37:32.424Z,33.23
2023-05-02T18:40:01.400Z,31.38
2023-05-02T18:42:28.995Z,30.36
2023-05-02T18:44:56.639Z,32.56
2023-05-02T18:47:24.784Z,32.85
2023-05-02T18:49:59.403Z,31.10
2023-05-02T18:52:29.702Z,31.82
2023-05-02T18:55:00.471Z,31.52
2023-05-02T18:57:28.696Z,32.76
2023-05-02T18:59:56.909Z,32.34
2023-05-02T19:02:27.262Z,32.47
2023-05-02T19:04:55.420Z,31.37
2023-05-02T19:07:23.037Z,33.04
2023-05-02T19:09:51.292Z,30.69
2023-05-02T19:12:19.137Z,30.38
2023-05-02T19:14:47.968Z,31.14
2023-05-02T19:17:15.750Z,30.58
2023-05-02T19:19:43.538Z,30.87
2023-05-02T19:22:15.000Z,32.07
2023-05-02T19:24:42.786Z,31.48
2023-05-02T19:27:10.743Z,32.18
2023-05-02T19:29:38.762Z,32.52
2023-05-02T19:32:07.247Z,33.85
2023-05-02T19:34:36.899Z,33.71
2023-05-02T19:37:04.670Z,33.84
2023-05-02T19:39:32.696Z,33.53
2023-05-02T19:42:00.535Z,33.36
2023-05-02T19:44:28.360Z,33.86
2023-05-02T19:46:56.276Z,33.94
2023-05-02T19:49:24.171Z,33.09
2023-05-02T19:51:52.044Z,33.45
2023-05-02T19:54:19.848Z,33.39
2023-05-02T19:56:48.954Z,33.10
2023-05-02T19:59:17.341Z,33.23
2023-05-02T20:01:46.808Z,32.24
2023-05-02T20:04:17.998Z,33.45
2023-05-02T20:06:45.860Z,33.59
2023-05-02T20:09:15.651Z,34.26
2023-05-02T20:11:43.371Z,31.92
2023-05-02T20:14:11.126Z,33.21
2023-05-02T20:16:38.959Z,33.71
2023-05-02T20:19:06.738Z,32.59
2023-05-02T20:21:35.022Z,33.47
2023-05-02T20:24:03.453Z,33.51
2023-05-02T20:26:33.819Z,33.09
2023-05-02T20:29:03.504Z,33.08
2023-05-02T20:31:31.488Z,32.73
2023-05-02T20:34:00.328Z,32.99
2023-05-02T20:36:29.509Z,33.36
2023-05-02T20:38:57.870Z,33.12
2023-05-02T20:41:29.343Z,34.07
2023-05-02T20:43:57.182Z,34.24
2023-05-02T20:46:24.845Z,34.37
2023-05-02T20:48:53.704Z,34.31
2023-05-02T20:51:21.629Z,33.42
2023-05-02T20:53:49.726Z,32.81
2023-05-02T20:56:17.263Z,32.11
2023-05-02T20:58:44.796Z,32.36
2023-05-02T21:01:12.559Z,33.07
2023-05-02T21:03:41.290Z,32.48
2023-05-02T21:06:09.059Z,32.73
2023-05-02T21:08:36.882Z,32.78
2023-05-02T21:11:13.616Z,33.27
2023-05-02T21:13:42.953Z,32.14
2023-05-02T21:16:17.757Z,31.56
2023-05-02T21:18:46.003Z,31.54
2023-05-02T21:21:13.926Z,32.48
2023-05-02T21:23:42.608Z,32.58
2023-05-02T21:26:10.232Z,32.15
2023-05-02T21:28:38.738Z,32.45
2023-05-02T21:31:07.873Z,32.41
2023-05-02T21:33:35.877Z,32.85
2023-05-02T21:36:03.933Z,32.54
2023-05-02T21:38:31.438Z,31.36
2023-05-02T21:41:04.165Z,33.24
2023-05-02T21:43:35.243Z,33.53
2023-05-02T21:46:02.701Z,33.28
2023-05-02T21:48:30.765Z,32.97
2023-05-02T21:50:58.369Z,33.28
2023-05-02T21:53:27.157Z,33.59
2023-05-02T21:55:54.983Z,33.39
2023-05-02T21:58:23.321Z,33.50
2023-05-02T22:00:50.855Z,33.07
2023-05-02T22:03:18.674Z,32.93
2023-05-02T22:05:48.361Z,33.74
2023-05-02T22:08:16.261Z,33.31
2023-05-02T22:10:44.216Z,33.02
2023-05-02T22:13:13.449Z,33.28
2023-05-02T22:15:47.497Z,33.04
2023-05-02T22:18:16.819Z,33.15
2023-05-02T22:20:45.562Z,32.75
2023-05-02T22:23:13.972Z,32.53
2023-05-02T22:25:44.911Z,32.77
2023-05-02T22:28:13.622Z,32.67
2023-05-02T22:30:44.964Z,32.92
2023-05-02T22:33:14.143Z,32.94
2023-05-02T22:35:42.119Z,32.23
2023-05-02T22:38:14.920Z,32.60
2023-05-02T22:40:42.472Z,32.48
2023-05-02T22:43:10.097Z,32.85
2023-05-02T22:45:38.400Z,32.21
2023-05-02T22:48:07.353Z,32.25
2023-05-02T22:50:35.017Z,32.59
2023-05-02T22:53:03.994Z,31.85
2023-05-02T22:55:31.931Z,32.46
2023-05-02T22:57:59.766Z,32.21
2023-05-02T23:00:27.429Z,33.02
2023-05-02T23:02:56.172Z,33.12
2023-05-02T23:05:23.881Z,32.41
2023-05-02T23:07:52.551Z,32.79
2023-05-02T23:10:20.287Z,32.36
2023-05-02T23:12:47.884Z,32.50
2023-05-02T23:15:15.545Z,31.27
2023-05-02T23:17:43.195Z,31.61
2023-05-02T23:20:11.056Z,32.60
2023-05-02T23:22:45.807Z,32.31
2023-05-02T23:25:14.947Z,32.47
2023-05-02T23:27:42.612Z,32.31
2023-05-02T23:30:10.557Z,32.69
2023-05-02T23:32:39.584Z,32.55
2023-05-02T23:35:11.153Z,32.88
2023-05-02T23:37:40.266Z,32.69
2023-05-02T23:40:10.987Z,31.46
2023-05-02T23:42:40.441Z,32.68
2023-05-02T23:45:09.504Z,32.82
2023-05-02T23:47:38.092Z,31.61
2023-05-02T23:50:06.436Z,32.59
2023-05-02T23:52:34.275Z,32.43
2023-05-02T23:55:02.207Z,32.91
2023-05-02T23:57:30.685Z,32.41
2023-05-02T23:59:58.210Z,32.88
